Time;durP1;ratioP1;P1;durP2;ratioP2;P2;SDS_P1;SDS_P2;PMS_P1;PMS_P2;Temp;Humidity;BMP_temperature;BMP_pressure;BME280_temperature;BME280_humidity;BME280_pressure;Samples;Min_cycle;Max_cycle;Signal;HPM_P1;HPM_P2
2023/08/10 00:00:37;;;;;;;6.60;3.58;;;20.50;95.10;;;;;;5059313;28;20027;-75
2023/08/10 00:03:03;;;;;;;6.85;3.33;;;20.40;94.80;;;;;;5056553;28;20040;-75
2023/08/10 00:05:29;;;;;;;6.60;3.20;;;20.40;95.20;;;;;;5059012;28;20024;-75
2023/08/10 00:07:55;;;;;;;5.00;3.72;;;20.40;95.20;;;;;;5058003;28;20036;-75
2023/08/10 00:10:21;;;;;;;4.47;3.30;;;20.30;95.40;;;;;;5060140;28;20020;-75
2023/08/10 00:12:46;;;;;;;4.65;3.08;;;20.30;95.70;;;;;;5056192;28;20045;-75
2023/08/10 00:15:12;;;;;;;4.43;2.80;;;20.30;96.10;;;;;;5056665;28;20024;-75
2023/08/10 00:17:38;;;;;;;4.93;3.25;;;20.30;95.80;;;;;;5057267;28;20025;-76
2023/08/10 00:20:07;;;;;;;5.18;3.20;;;20.30;96.20;;;;;;5057582;28;20056;-76
2023/08/10 00:22:33;;;;;;;5.10;3.17;;;20.30;95.80;;;;;;5058367;28;20070;-76
2023/08/10 00:24:58;;;;;;;5.35;3.42;;;20.30;95.70;;;;;;5059865;28;20029;-76
2023/08/10 00:27:25;;;;;;;3.72;2.80;;;20.30;96.20;;;;;;5058676;28;20057;-76
2023/08/10 00:29:51;;;;;;;4.65;3.13;;;20.30;96.10;;;;;;5057704;28;20025;-76
2023/08/10 00:32:19;;;;;;;5.13;2.83;;;20.40;96.20;;;;;;5058748;28;20039;-76
2023/08/10 00:34:44;;;;;;;4.70;3.28;;;20.50;95.50;;;;;;5059186;28;20036;-76
2023/08/10 00:37:10;;;;;;;7.32;3.13;;;20.50;95.50;;;;;;5058476;28;20028;-75
2023/08/10 00:39:36;;;;;;;4.65;3.15;;;20.60;95.70;;;;;;5059903;28;20493;-76
2023/08/10 00:42:02;;;;;;;3.78;2.83;;;20.60;95.70;;;;;;5058426;28;20028;-75
2023/08/10 00:44:28;;;;;;;4.75;3.60;;;20.70;96.00;;;;;;5060414;28;20017;-75
2023/08/10 00:46:54;;;;;;;4.70;3.17;;;20.70;95.50;;;;;;5057632;28;20104;-77
2023/08/10 00:49:20;;;;;;;4.45;3.28;;;20.70;95.50;;;;;;5060601;28;20033;-75
2023/08/10 00:51:46;;;;;;;5.38;2.95;;;20.80;95.20;;;;;;5059324;28;20477;-75
2023/08/10 00:54:12;;;;;;;3.95;2.88;;;20.70;95.30;;;;;;5060479;28;20440;-75
2023/08/10 00:56:38;;;;;;;6.07;3.10;;;20.80;95.90;;;;;;5057790;28;20136;-75
2023/08/10 00:59:04;;;;;;;3.58;2.40;;;20.70;95.90;;;;;;5059580;28;20848;-75
2023/08/10 01:01:29;;;;;;;6.28;3.03;;;20.70;96.40;;;;;;5059333;28;20021;-75
2023/08/10 01:03:55;;;;;;;3.95;2.78;;;20.70;95.90;;;;;;5060088;28;20401;-75
2023/08/10 01:06:21;;;;;;;4.05;3.00;;;20.60;96.80;;;;;;5059490;28;20017;-75
2023/08/10 01:09:19;;;;;;;3.70;2.80;;;20.60;96.70;;;;;;5059515;28;20025;-75
2023/08/10 01:12:09;;;;;;;3.83;2.72;;;20.60;96.80;;;;;;5058323;28;20025;-76
2023/08/10 01:14:46;;;;;;;3.83;2.60;;;20.60;96.60;;;;;;5047265;28;20061;-75
2023/08/10 01:17:19;;;;;;;7.25;2.97;;;20.60;96.20;;;;;;5057450;28;20017;-76
2023/08/10 01:19:48;;;;;;;7.45;2.97;;;20.60;96.50;;;;;;5057470;28;20061;-75
2023/08/10 01:22:48;;;;;;;6.43;3.20;;;20.60;96.60;;;;;;5063429;28;20512;-75
2023/08/10 01:25:15;;;;;;;3.45;2.42;;;20.60;97.30;;;;;;5064187;28;20075;-75
2023/08/10 01:27:41;;;;;;;4.40;3.00;;;20.60;97.70;;;;;;5061604;28;20108;-77
2023/08/10 01:30:08;;;;;;;5.70;3.20;;;20.60;97.70;;;;;;5064399;28;20021;-77
2023/08/10 01:32:33;;;;;;;7.50;3.08;;;20.50;97.80;;;;;;5061823;28;20062;-75
2023/08/10 01:35:00;;;;;;;6.00;3.33;;;20.50;97.80;;;;;;5064535;28;20616;-76
2023/08/10 01:37:26;;;;;;;5.10;3.50;;;20.40;98.30;;;;;;5060484;28;20032;-76
2023/08/10 01:39:52;;;;;;;4.10;2.75;;;20.40;98.50;;;;;;5065035;28;20103;-76
2023/08/10 01:42:18;;;;;;;3.95;3.10;;;20.30;98.60;;;;;;5062216;28;20025;-76
2023/08/10 01:44:44;;;;;;;4.82;3.17;;;20.30;98.50;;;;;;5065569;28;20468;-75
2023/08/10 01:47:26;;;;;;;4.68;3.13;;;20.40;97.80;;;;;;5061767;28;20128;-77
2023/08/10 01:49:56;;;;;;;4.90;3.20;;;20.50;97.70;;;;;;5049438;28;20021;-76
2023/08/10 01:52:26;;;;;;;4.40;3.00;;;20.60;97.90;;;;;;5060883;28;20021;-75
2023/08/10 01:54:52;;;;;;;6.38;3.50;;;20.60;97.30;;;;;;5062018;28;20036;-75
2023/08/10 01:57:18;;;;;;;4.68;2.83;;;20.50;96.70;;;;;;5061667;28;20051;-75
2023/08/10 01:59:44;;;;;;;4.53;3.53;;;20.60;95.50;;;;;;5060303;28;20036;-74
2023/08/10 02:02:10;;;;;;;5.22;2.95;;;20.70;94.50;;;;;;5061161;28;20033;-75
2023/08/10 02:04:36;;;;;;;3.72;2.53;;;20.90;94.00;;;;;;5061596;28;20028;-76
2023/08/10 02:07:02;;;;;;;6.10;2.90;;;21.10;93.00;;;;;;5061040;28;20063;-75
2023/08/10 02:09:27;;;;;;;6.13;3.72;;;21.40;91.90;;;;;;5061743;28;20039;-75
2023/08/10 02:11:53;;;;;;;5.93;3.03;;;21.50;91.10;;;;;;5061207;28;20052;-74
2023/08/10 02:14:19;;;;;;;4.53;3.08;;;21.70;90.00;;;;;;5060123;28;20182;-75
2023/08/10 02:16:44;;;;;;;5.78;3.63;;;21.70;89.80;;;;;;5061457;28;20021;-75
2023/08/10 02:19:10;;;;;;;6.00;3.60;;;21.70;90.30;;;;;;5061258;28;20029;-75
2023/08/10 02:21:36;;;;;;;4.65;3.08;;;21.50;90.60;;;;;;5061313;28;20029;-75
2023/08/10 02:24:02;;;;;;;5.18;3.95;;;21.40;91.30;;;;;;5059617;28;20033;-75
2023/08/10 02:26:28;;;;;;;3.70;2.83;;;21.20;91.30;;;;;;5061731;28;20052;-75
2023/08/10 02:28:53;;;;;;;3.65;2.70;;;21.20;92.20;;;;;;5060938;28;20504;-75
2023/08/10 02:31:20;;;;;;;5.93;2.75;;;21.00;92.30;;;;;;5061159;28;20036;-76
2023/08/10 02:33:46;;;;;;;4.20;3.22;;;20.90;92.50;;;;;;5060895;28;20051;-75
2023/08/10 02:36:12;;;;;;;5.68;3.42;;;20.70;93.10;;;;;;5061146;28;20021;-75
2023/08/10 02:38:38;;;;;;;5.30;3.30;;;20.60;93.10;;;;;;5061071;28;20119;-75
2023/08/10 02:41:04;;;;;;;4.03;3.17;;;20.50;93.50;;;;;;5061222;28;20086;-76
2023/08/10 02:43:30;;;;;;;5.70;2.95;;;20.40;93.70;;;;;;5060569;28;20025;-75
2023/08/10 02:45:55;;;;;;;4.20;3.03;;;20.30;94.40;;;;;;5049020;28;20029;-75
2023/08/10 02:48:21;;;;;;;4.90;3.03;;;20.20;94.80;;;;;;5060239;28;20033;-75
2023/08/10 02:50:47;;;;;;;4.43;2.85;;;20.10;95.10;;;;;;5060168;28;20033;-75
2023/08/10 02:53:13;;;;;;;5.00;3.30;;;20.10;95.30;;;;;;5059352;28;20124;-75
2023/08/10 02:55:39;;;;;;;6.53;3.65;;;20.00;95.50;;;;;;5058020;28;20060;-75
2023/08/10 02:58:04;;;;;;;5.03;3.33;;;20.00;96.20;;;;;;5058699;28;20024;-75
2023/08/10 03:00:30;;;;;;;4.82;3.58;;;19.90;96.20;;;;;;5058590;28;20025;-75
2023/08/10 03:02:56;;;;;;;4.85;2.90;;;19.90;96.40;;;;;;5058756;28;20047;-76
2023/08/10 03:05:21;;;;;;;5.55;3.15;;;19.80;96.60;;;;;;5056211;28;20029;-75
2023/08/10 03:07:48;;;;;;;5.05;3.45;;;19.70;96.00;;;;;;5058176;28;20087;-75
2023/08/10 03:10:14;;;;;;;4.95;3.17;;;19.70;96.50;;;;;;5058976;28;20048;-76
2023/08/10 03:12:40;;;;;;;6.65;3.80;;;19.70;96.20;;;;;;5058268;28;20025;-74
2023/08/10 03:15:09;;;;;;;5.35;3.90;;;19.80;96.40;;;;;;5057956;28;20033;-76
2023/08/10 03:17:35;;;;;;;4.82;3.35;;;19.80;96.20;;;;;;5059948;28;20433;-75
2023/08/10 03:20:03;;;;;;;4.22;3.15;;;19.90;95.90;;;;;;5059842;28;20025;-75
2023/08/10 03:22:28;;;;;;;6.95;3.25;;;20.00;95.40;;;;;;5059928;28;20104;-75
2023/08/10 03:24:54;;;;;;;7.05;3.28;;;20.20;99.00;;;;;;5060022;28;20064;-74
2023/08/10 03:27:20;;;;;;;5.97;3.15;;;20.30;99.90;;;;;;5059678;28;20017;-75
2023/08/10 03:29:45;;;;;;;5.10;3.60;;;20.40;99.90;;;;;;5059550;28;20025;-75
2023/08/10 03:32:11;;;;;;;5.90;3.10;;;20.60;99.90;;;;;;5060244;28;20077;-75
2023/08/10 03:34:37;;;;;;;4.47;2.78;;;20.60;99.90;;;;;;5060101;28;20040;-75
2023/08/10 03:37:03;;;;;;;5.35;3.55;;;20.60;99.90;;;;;;5058422;28;20017;-75
2023/08/10 03:39:29;;;;;;;4.82;3.45;;;20.60;99.90;;;;;;5059538;28;20028;-75
2023/08/10 03:41:54;;;;;;;5.55;2.72;;;20.60;99.90;;;;;;5059886;28;20032;-76
2023/08/10 03:44:20;;;;;;;5.13;3.22;;;20.60;99.90;;;;;;5058697;28;20036;-75
2023/08/10 03:46:46;;;;;;;7.88;3.65;;;20.60;99.90;;;;;;5060232;28;20027;-75
2023/08/10 03:49:11;;;;;;;5.20;3.13;;;20.60;99.90;;;;;;5059399;28;20493;-75
2023/08/10 03:51:37;;;;;;;5.03;3.10;;;20.50;99.90;;;;;;5059291;28;20048;-75
2023/08/10 03:54:03;;;;;;;4.95;3.10;;;20.50;99.90;;;;;;5059704;28;20090;-75
2023/08/10 03:56:28;;;;;;;4.85;3.05;;;20.30;99.90;;;;;;5060668;28;20025;-75
2023/08/10 03:58:55;;;;;;;4.10;3.03;;;20.40;99.90;;;;;;5059784;28;20460;-75
2023/08/10 04:01:22;;;;;;;6.05;3.17;;;20.40;99.90;;;;;;5059684;28;20058;-75
2023/08/10 04:03:48;;;;;;;5.85;3.25;;;20.40;99.90;;;;;;5059993;28;20064;-74
2023/08/10 04:06:14;;;;;;;3.83;3.05;;;20.50;99.90;;;;;;5060841;28;20035;-75
2023/08/10 04:08:39;;;;;;;5.00;3.50;;;20.60;99.90;;;;;;5058901;28;20512;-75
2023/08/10 04:11:05;;;;;;;4.05;2.92;;;20.60;99.90;;;;;;5049584;28;20032;-75
2023/08/10 04:13:31;;;;;;;4.22;3.00;;;20.50;99.90;;;;;;5060788;28;20040;-75
2023/08/10 04:15:56;;;;;;;7.30;3.50;;;20.40;99.90;;;;;;5059837;28;20021;-75
2023/08/10 04:18:22;;;;;;;4.07;2.75;;;20.40;99.90;;;;;;5068976;28;20035;-74
2023/08/10 04:20:47;;;;;;;6.28;3.08;;;20.60;99.90;;;;;;5058924;28;20108;-75
2023/08/10 04:23:13;;;;;;;6.93;2.75;;;20.90;99.90;;;;;;5067100;28;20135;-74
2023/08/10 04:25:39;;;;;;;4.45;3.22;;;21.20;99.60;;;;;;5063634;28;20076;-74
2023/08/10 04:28:05;;;;;;;5.10;3.58;;;21.50;98.90;;;;;;5072079;28;20020;-74
2023/08/10 04:30:30;;;;;;;5.53;3.30;;;21.70;98.50;;;;;;5067654;28;20021;-75
2023/08/10 04:32:57;;;;;;;10.82;3.10;;;21.80;98.40;;;;;;5071841;28;20034;-75
2023/08/10 04:35:23;;;;;;;5.90;3.10;;;21.90;98.50;;;;;;5066137;28;20020;-76
2023/08/10 04:37:50;;;;;;;7.15;3.15;;;22.00;99.20;;;;;;5065981;28;20121;-75
2023/08/10 04:40:16;;;;;;;11.77;4.40;;;21.90;99.90;;;;;;5061611;28;20021;-74
2023/08/10 04:42:41;;;;;;;6.28;3.75;;;21.90;99.90;;;;;;5066314;28;20074;-76
2023/08/10 04:45:09;;;;;;;12.63;5.47;;;21.90;99.90;;;;;;5062137;28;20029;-75
2023/08/10 04:47:35;;;;;;;7.93;4.75;;;21.80;99.90;;;;;;5065251;28;20017;-76
2023/08/10 04:50:02;;;;;;;9.18;4.93;;;21.80;99.90;;;;;;5061751;28;20026;-75
2023/08/10 04:52:28;;;;;;;9.02;4.63;;;21.70;99.90;;;;;;5073580;28;20035;-75
2023/08/10 04:54:54;;;;;;;12.85;5.30;;;21.70;99.90;;;;;;5075029;28;20024;-75
2023/08/10 04:57:20;;;;;;;11.55;5.43;;;21.70;99.90;;;;;;5078500;28;20059;-74
2023/08/10 04:59:46;;;;;;;14.63;5.32;;;21.70;99.90;;;;;;5078148;28;20021;-74
2023/08/10 05:02:13;;;;;;;8.90;4.78;;;21.70;99.90;;;;;;5078809;28;20060;-76
2023/08/10 05:04:38;;;;;;;14.75;4.70;;;21.60;99.90;;;;;;5078387;28;20020;-76
2023/08/10 05:07:04;;;;;;;11.57;5.57;;;21.60;99.90;;;;;;5078940;28;20020;-75
2023/08/10 05:09:30;;;;;;;11.82;4.70;;;21.70;99.90;;;;;;5078543;28;20032;-75
2023/08/10 05:11:56;;;;;;;13.48;5.72;;;21.70;99.90;;;;;;5078665;28;20111;-74
2023/08/10 05:14:21;;;;;;;16.73;6.50;;;21.70;99.90;;;;;;5071547;28;20048;-77
2023/08/10 05:16:47;;;;;;;18.02;4.63;;;21.70;99.90;;;;;;5059769;28;20029;-74
2023/08/10 05:19:13;;;;;;;12.75;5.85;;;21.80;99.90;;;;;;5059771;28;20493;-75
2023/08/10 05:21:39;;;;;;;13.98;4.80;;;21.80;99.90;;;;;;5045497;28;20401;-72
2023/08/10 05:24:06;;;;;;;17.48;5.32;;;21.80;99.90;;;;;;5060081;28;20037;-79
2023/08/10 05:26:32;;;;;;;12.02;5.18;;;21.80;99.90;;;;;;5069647;28;20024;-79
2023/08/10 05:28:58;;;;;;;18.00;6.72;;;21.80;99.90;;;;;;5077000;28;20024;-77
2023/08/10 05:31:23;;;;;;;12.55;4.70;;;21.80;99.90;;;;;;5077821;28;20028;-78
2023/08/10 05:33:49;;;;;;;11.52;5.97;;;21.80;99.90;;;;;;5076029;28;20508;-79
2023/08/10 05:36:15;;;;;;;22.65;6.47;;;21.80;99.90;;;;;;5072365;28;20028;-78
2023/08/10 05:38:42;;;;;;;18.10;5.40;;;21.80;99.90;;;;;;5067413;28;20048;-79
2023/08/10 05:41:07;;;;;;;11.52;5.45;;;21.80;99.90;;;;;;5071689;28;20021;-80
2023/08/10 05:43:33;;;;;;;14.00;5.30;;;21.80;99.90;;;;;;5066733;28;20484;-77
2023/08/10 05:45:59;;;;;;;16.48;5.47;;;21.80;99.90;;;;;;5072371;28;20020;-75
2023/08/10 05:48:25;;;;;;;13.48;5.65;;;21.90;99.90;;;;;;5066288;28;20072;-82
2023/08/10 05:50:50;;;;;;;15.18;7.28;;;21.80;99.90;;;;;;5072270;28;20035;-77
2023/08/10 05:53:16;;;;;;;16.52;6.38;;;21.80;99.90;;;;;;5066487;28;20044;-77
2023/08/10 05:55:42;;;;;;;12.43;5.30;;;21.80;99.90;;;;;;5071121;28;20504;-79
2023/08/10 05:58:08;;;;;;;13.73;6.15;;;21.70;99.90;;;;;;5065277;28;20025;-78
2023/08/10 06:00:36;;;;;;;14.35;5.75;;;21.80;99.90;;;;;;5072105;28;20028;-77
2023/08/10 06:03:02;;;;;;;16.83;6.22;;;21.80;99.90;;;;;;5065844;28;20029;-79
2023/08/10 06:05:31;;;;;;;17.90;5.28;;;21.80;99.90;;;;;;5072065;28;20024;-78
2023/08/10 06:07:57;;;;;;;22.60;5.15;;;21.80;99.90;;;;;;5065960;28;20032;-80
2023/08/10 06:10:23;;;;;;;20.80;5.60;;;21.90;99.90;;;;;;5071734;28;20028;-82
2023/08/10 06:12:49;;;;;;;14.88;4.95;;;21.90;99.90;;;;;;5065305;28;20452;-76
2023/08/10 06:15:15;;;;;;;7.88;4.70;;;21.90;99.90;;;;;;5073083;28;20035;-74
2023/08/10 06:17:41;;;;;;;17.15;5.53;;;22.00;99.90;;;;;;5073862;28;20400;-74
2023/08/10 06:20:13;;;;;;;13.20;4.75;;;22.00;99.90;;;;;;5068733;28;20020;-73
2023/08/10 06:22:39;;;;;;;16.70;5.85;;;22.00;99.90;;;;;;5064939;28;20016;-75
2023/08/10 06:25:05;;;;;;;14.38;5.25;;;22.10;99.90;;;;;;5072719;28;20024;-75
2023/08/10 06:27:32;;;;;;;15.85;4.68;;;22.10;99.90;;;;;;5069361;28;20028;-74
2023/08/10 06:29:58;;;;;;;13.25;5.03;;;22.10;99.90;;;;;;5072526;28;20032;-73
2023/08/10 06:32:25;;;;;;;12.13;5.00;;;22.20;99.90;;;;;;5068399;28;20072;-73
2023/08/10 06:34:51;;;;;;;11.02;4.65;;;22.20;99.90;;;;;;5061775;28;20048;-75
2023/08/10 06:37:17;;;;;;;11.23;5.03;;;22.30;99.90;;;;;;5050947;28;20417;-74
2023/08/10 06:39:42;;;;;;;13.38;5.50;;;22.30;99.90;;;;;;5070652;28;20032;-73
2023/08/10 06:42:08;;;;;;;13.95;5.55;;;22.50;99.90;;;;;;5067597;28;20075;-74
2023/08/10 06:44:34;;;;;;;12.50;5.50;;;22.60;99.90;;;;;;5061389;28;20028;-72
2023/08/10 06:47:00;;;;;;;13.50;5.43;;;22.60;99.90;;;;;;5062763;28;20033;-74
2023/08/10 06:49:25;;;;;;;15.65;6.10;;;22.60;99.90;;;;;;5061333;28;20044;-74
2023/08/10 06:51:51;;;;;;;18.92;6.07;;;22.50;99.90;;;;;;5057944;28;20036;-74
2023/08/10 06:54:17;;;;;;;16.67;5.93;;;22.50;99.90;;;;;;5058377;28;20120;-74
2023/08/10 06:56:43;;;;;;;10.93;4.65;;;22.50;99.90;;;;;;5057429;28;20039;-75
2023/08/10 06:59:08;;;;;;;12.82;4.95;;;22.50;99.90;;;;;;5067229;28;20016;-75
2023/08/10 07:01:34;;;;;;;16.88;5.30;;;22.60;99.90;;;;;;5072677;28;20044;-74
2023/08/10 07:04:00;;;;;;;12.48;5.30;;;22.60;99.90;;;;;;5069543;28;20409;-74
2023/08/10 07:06:27;;;;;;;15.35;5.05;;;22.60;99.90;;;;;;5070413;28;20032;-74
2023/08/10 07:08:53;;;;;;;18.25;4.78;;;22.70;99.90;;;;;;5074257;28;20075;-74
2023/08/10 07:11:21;;;;;;;16.50;4.75;;;22.70;99.90;;;;;;5067261;28;20029;-75
2023/08/10 07:13:48;;;;;;;11.88;5.43;;;22.60;99.90;;;;;;5066725;28;20492;-75
2023/08/10 07:16:15;;;;;;;17.48;5.78;;;22.60;99.90;;;;;;5072355;28;20145;-73
2023/08/10 07:18:41;;;;;;;10.35;5.07;;;22.60;99.90;;;;;;5069762;28;20491;-74
2023/08/10 07:21:07;;;;;;;11.32;4.93;;;22.70;99.90;;;;;;5060999;28;20024;-74
2023/08/10 07:23:32;;;;;;;16.65;5.10;;;22.80;99.90;;;;;;5070280;28;20404;-72
2023/08/10 07:25:58;;;;;;;14.40;5.13;;;22.90;99.90;;;;;;5069002;28;20076;-73
2023/08/10 07:28:25;;;;;;;14.25;5.93;;;22.90;99.90;;;;;;5069194;28;20020;-73
2023/08/10 07:30:51;;;;;;;12.88;4.00;;;23.00;99.90;;;;;;5063530;28;20032;-75
2023/08/10 07:33:17;;;;;;;15.00;4.90;;;23.10;99.90;;;;;;5061535;28;20107;-74
2023/08/10 07:35:44;;;;;;;14.75;5.00;;;23.10;99.90;;;;;;5057473;28;20436;-74
2023/08/10 07:38:13;;;;;;;13.90;4.22;;;23.20;99.90;;;;;;5065212;28;20412;-73
2023/08/10 07:40:40;;;;;;;11.57;4.40;;;23.30;99.90;;;;;;5066657;28;20052;-73
2023/08/10 07:43:06;;;;;;;10.45;4.65;;;23.30;99.90;;;;;;5066475;28;20044;-77
2023/08/10 07:45:32;;;;;;;14.27;4.90;;;23.40;99.90;;;;;;5068223;28;20384;-72
2023/08/10 07:47:57;;;;;;;14.02;4.38;;;23.40;99.90;;;;;;5065528;28;20493;-74
2023/08/10 07:50:23;;;;;;;11.75;4.22;;;23.40;99.90;;;;;;5063801;28;20040;-73
2023/08/10 07:52:49;;;;;;;9.32;3.90;;;23.40;99.90;;;;;;5059552;28;20607;-75
2023/08/10 07:55:15;;;;;;;13.23;4.20;;;23.50;99.90;;;;;;5055546;28;20033;-75
2023/08/10 07:57:41;;;;;;;13.77;4.28;;;23.50;99.90;;;;;;5064792;28;20100;-74
2023/08/10 08:00:10;;;;;;;12.93;4.63;;;23.50;99.90;;;;;;5070304;28;20024;-72
2023/08/10 08:02:36;;;;;;;11.40;4.43;;;23.60;99.90;;;;;;5064169;28;20021;-72
2023/08/10 08:05:03;;;;;;;13.18;4.82;;;23.70;99.90;;;;;;5068571;28;20031;-71
2023/08/10 08:07:32;;;;;;;11.90;3.85;;;23.80;99.90;;;;;;5070162;28;20024;-73
2023/08/10 08:09:58;;;;;;;9.07;3.90;;;23.90;99.90;;;;;;5071746;28;20025;-72
2023/08/10 08:12:26;;;;;;;11.60;4.30;;;23.90;99.90;;;;;;5069948;28;20031;-75
2023/08/10 08:14:52;;;;;;;16.05;4.97;;;23.90;99.90;;;;;;5067483;28;20028;-75
2023/08/10 08:17:18;;;;;;;7.75;3.65;;;23.90;99.90;;;;;;5065877;28;20461;-74
2023/08/10 08:19:44;;;;;;;15.63;5.38;;;24.00;99.90;;;;;;5068403;28;20052;-73
2023/08/10 08:22:10;;;;;;;11.70;4.35;;;24.10;99.90;;;;;;5055107;28;20103;-73
2023/08/10 08:24:36;;;;;;;10.95;3.13;;;24.20;99.90;;;;;;5067678;28;20036;-74
2023/08/10 08:27:01;;;;;;;8.98;3.67;;;24.30;99.90;;;;;;5052182;28;20056;-74
2023/08/10 08:29:27;;;;;;;10.40;4.10;;;24.20;99.90;;;;;;5047094;28;20025;-74
2023/08/10 08:31:53;;;;;;;11.88;4.57;;;24.10;99.90;;;;;;5055147;28;20021;-71
2023/08/10 08:34:19;;;;;;;13.90;4.57;;;24.20;99.90;;;;;;5052814;28;20055;-72
2023/08/10 08:36:47;;;;;;;12.40;4.50;;;24.20;99.90;;;;;;5054964;28;20558;-75
2023/08/10 08:39:13;;;;;;;9.52;3.70;;;24.20;99.90;;;;;;5055026;28;20448;-73
2023/08/10 08:41:38;;;;;;;17.83;4.63;;;24.20;99.90;;;;;;5054806;28;20112;-73
2023/08/10 08:44:05;;;;;;;9.07;4.45;;;24.40;99.90;;;;;;5057800;28;20029;-76
2023/08/10 08:46:32;;;;;;;8.02;3.42;;;24.50;99.90;;;;;;5054165;28;20029;-75
2023/08/10 08:48:59;;;;;;;14.50;4.25;;;24.50;99.90;;;;;;5052505;28;20393;-73
2023/08/10 08:51:25;;;;;;;10.82;3.72;;;24.50;99.90;;;;;;5054238;28;20024;-74
2023/08/10 08:53:52;;;;;;;12.55;4.53;;;24.50;99.90;;;;;;5052883;28;20029;-73
2023/08/10 08:56:18;;;;;;;19.67;5.25;;;24.70;99.90;;;;;;5052110;28;20033;-73
2023/08/10 08:58:44;;;;;;;12.77;3.53;;;24.80;99.90;;;;;;5049830;28;20116;-71
2023/08/10 09:01:11;;;;;;;11.82;4.60;;;24.90;99.90;;;;;;5054104;28;20059;-72
2023/08/10 09:03:37;;;;;;;10.95;3.53;;;25.00;99.90;;;;;;5053084;28;20568;-73
2023/08/10 09:06:03;;;;;;;11.55;4.50;;;25.00;99.90;;;;;;5054640;28;20055;-73
2023/08/10 09:08:29;;;;;;;10.43;4.32;;;25.10;99.90;;;;;;5053691;28;20032;-73
2023/08/10 09:10:55;;;;;;;9.57;3.90;;;25.10;99.90;;;;;;5054727;28;20024;-72
2023/08/10 09:13:22;;;;;;;11.70;4.28;;;25.20;99.90;;;;;;5053952;28;20032;-74
2023/08/10 09:16:04;;;;;;;10.40;4.03;;;25.30;99.90;;;;;;5054102;28;20056;-75
2023/08/10 09:18:34;;;;;;;13.20;4.53;;;25.20;99.90;;;;;;5052315;28;20033;-74
2023/08/10 09:21:30;;;;;;;9.83;4.60;;;25.40;99.90;;;;;;5052826;28;20025;-74
2023/08/10 09:23:55;;;;;;;11.02;3.42;;;25.40;99.90;;;;;;5053179;28;20311;-74
2023/08/10 09:26:22;;;;;;;8.80;3.88;;;25.30;99.90;;;;;;5054261;28;20028;-72
2023/08/10 09:28:49;;;;;;;11.80;4.00;;;25.40;99.90;;;;;;5047367;28;20480;-71
2023/08/10 09:31:25;;;;;;;8.35;3.60;;;25.50;99.90;;;;;;5054106;28;20025;-72
2023/08/10 09:33:59;;;;;;;12.75;3.92;;;25.60;99.90;;;;;;5054668;28;20025;-74
2023/08/10 09:36:27;;;;;;;12.60;4.57;;;25.60;99.90;;;;;;5053555;28;20029;-74
2023/08/10 09:38:54;;;;;;;18.05;4.10;;;25.70;99.90;;;;;;5053471;28;20423;-74
2023/08/10 09:41:21;;;;;;;10.75;4.22;;;25.70;99.90;;;;;;5059105;28;20457;-74
2023/08/10 09:43:47;;;;;;;11.93;4.43;;;25.80;99.90;;;;;;5059446;28;20024;-74
2023/08/10 09:46:14;;;;;;;7.88;3.88;;;25.80;99.90;;;;;;5060094;28;20025;-72
2023/08/10 09:48:42;;;;;;;7.97;3.70;;;25.90;99.90;;;;;;5060312;28;20029;-72
2023/08/10 09:51:09;;;;;;;9.65;3.90;;;26.10;99.90;;;;;;5059620;28;20032;-73
2023/08/10 09:53:36;;;;;;;10.25;3.70;;;26.30;99.90;;;;;;5059140;28;20025;-73
2023/08/10 09:56:06;;;;;;;14.10;4.50;;;26.40;99.90;;;;;;5060658;28;20039;-72
2023/08/10 09:58:36;;;;;;;10.52;3.83;;;26.40;99.90;;;;;;5047710;28;20037;-73
2023/08/10 10:01:03;;;;;;;10.82;3.60;;;26.30;99.90;;;;;;5053699;28;20111;-73
2023/08/10 10:03:31;;;;;;;10.35;3.70;;;26.50;99.90;;;;;;5060647;28;20036;-74
2023/08/10 10:05:57;;;;;;;9.80;3.75;;;26.50;99.90;;;;;;5062303;28;20071;-74
2023/08/10 10:08:27;;;;;;;14.55;4.35;;;26.30;99.90;;;;;;5058405;28;20021;-73
2023/08/10 10:11:00;;;;;;;13.27;4.18;;;26.20;99.90;;;;;;5060463;28;20021;-73
2023/08/10 10:13:27;;;;;;;11.30;4.05;;;26.10;99.90;;;;;;5058721;28;20032;-73
2023/08/10 10:15:56;;;;;;;10.90;4.22;;;26.00;99.90;;;;;;5056902;28;20122;-75
2023/08/10 10:18:23;;;;;;;9.30;4.00;;;26.10;99.90;;;;;;5057690;28;20031;-72
2023/08/10 10:20:50;;;;;;;15.20;5.55;;;26.30;99.90;;;;;;5054731;28;20033;-74
2023/08/10 10:23:18;;;;;;;10.65;3.90;;;26.60;99.90;;;;;;5056960;28;20069;-76
2023/08/10 10:26:18;;;;;;;11.35;3.83;;;26.80;99.90;;;;;;5056802;28;20068;-75
2023/08/10 10:29:04;;;;;;;;;;;26.90;99.90;;;;;;5052889;28;20091;-75
2023/08/10 10:31:30;;;;;;;7.85;3.42;;;26.90;99.90;;;;;;5057052;28;19955;-75
2023/08/10 10:33:56;;;;;;;9.77;3.60;;;26.80;99.90;;;;;;5059489;28;20496;-76
2023/08/10 10:36:21;;;;;;;9.75;3.75;;;26.80;99.90;;;;;;5061175;28;20036;-76
2023/08/10 10:38:52;;;;;;;12.32;4.10;;;26.70;99.90;;;;;;5057471;28;20058;-75
2023/08/10 10:41:30;;;;;;;10.10;4.45;;;26.80;99.90;;;;;;5063331;28;20404;-73
2023/08/10 10:43:58;;;;;;;10.18;4.00;;;26.80;99.90;;;;;;5062035;28;20028;-75
2023/08/10 10:46:33;;;;;;;9.93;4.13;;;26.80;99.90;;;;;;5055184;28;20021;-74
2023/08/10 10:49:00;;;;;;;8.20;3.85;;;27.00;99.90;;;;;;5061107;28;20043;-74
2023/08/10 10:51:28;;;;;;;10.95;3.72;;;27.10;99.90;;;;;;5057413;28;20104;-74
2023/08/10 10:53:54;;;;;;;11.48;3.45;;;27.00;99.90;;;;;;5056088;28;20079;-73
2023/08/10 10:56:20;;;;;;;10.20;3.97;;;27.10;99.90;;;;;;5057292;28;21060;-76
2023/08/10 10:58:50;;;;;;;12.38;4.18;;;27.10;99.90;;;;;;5058858;28;21031;-74
2023/08/10 11:01:19;;;;;;;8.52;3.53;;;27.20;99.90;;;;;;5055845;28;20029;-75
2023/08/10 11:03:56;;;;;;;10.33;4.73;;;27.30;99.90;;;;;;5059257;28;20427;-74
2023/08/10 11:06:24;;;;;;;8.90;4.15;;;27.20;99.90;;;;;;5058528;28;20086;-75
2023/08/10 11:08:55;;;;;;;8.10;3.33;;;27.40;99.90;;;;;;5056487;28;20063;-74
2023/08/10 11:11:21;;;;;;;12.75;3.90;;;27.50;99.90;;;;;;5060078;28;20145;-73
2023/08/10 11:13:48;;;;;;;7.97;3.72;;;27.50;99.90;;;;;;5058377;28;20029;-74
2023/08/10 11:16:15;;;;;;;8.70;3.58;;;27.40;99.90;;;;;;5055716;28;20033;-73
2023/08/10 11:18:42;;;;;;;7.85;3.63;;;27.30;99.90;;;;;;5054688;28;20033;-74
2023/08/10 11:21:09;;;;;;;10.60;4.15;;;27.20;99.90;;;;;;5055730;28;20020;-73
2023/08/10 11:23:35;;;;;;;9.93;4.45;;;27.30;99.90;;;;;;5055726;28;20037;-72
2023/08/10 11:26:02;;;;;;;14.93;5.13;;;27.50;99.90;;;;;;5055796;28;20158;-73
2023/08/10 11:28:28;;;;;;;11.52;3.80;;;27.40;99.90;;;;;;5053977;28;20028;-73
2023/08/10 11:31:01;;;;;;;9.13;4.05;;;27.50;99.90;;;;;;5054073;28;20029;-72
2023/08/10 11:33:27;;;;;;;10.30;4.07;;;27.40;99.90;;;;;;5055626;28;20635;-73
2023/08/10 11:35:53;;;;;;;15.48;3.97;;;27.50;99.90;;;;;;5055408;28;20040;-73
2023/08/10 11:38:19;;;;;;;9.70;4.22;;;27.60;99.90;;;;;;5051867;28;20075;-73
2023/08/10 11:40:45;;;;;;;13.75;4.68;;;27.70;99.90;;;;;;5055055;28;20476;-74
2023/08/10 11:43:19;;;;;;;9.13;3.65;;;27.80;99.90;;;;;;5056115;28;20028;-73
2023/08/10 11:45:46;;;;;;;11.15;3.80;;;27.90;99.90;;;;;;5055039;28;20057;-73
2023/08/10 11:48:16;;;;;;;10.93;3.92;;;28.00;99.90;;;;;;5058070;28;20047;-75
2023/08/10 11:50:43;;;;;;;6.97;3.70;;;28.20;99.80;;;;;;5055675;28;20025;-74
2023/08/10 11:53:19;;;;;;;13.63;3.50;;;28.10;99.10;;;;;;5053107;28;20021;-75
2023/08/10 11:55:47;;;;;;;9.27;3.53;;;28.10;99.40;;;;;;5057303;28;20067;-75
2023/08/10 11:58:13;;;;;;;8.55;3.38;;;28.00;99.50;;;;;;5053913;28;20025;-74
2023/08/10 12:00:41;;;;;;;10.80;3.63;;;28.10;99.90;;;;;;5058374;28;20107;-73
2023/08/10 12:03:12;;;;;;;8.73;4.45;;;28.30;99.60;;;;;;5053089;28;20019;-73
2023/08/10 12:05:38;;;;;;;10.77;3.38;;;28.30;98.90;;;;;;5053845;28;20036;-74
2023/08/10 12:08:06;;;;;;;14.95;4.03;;;28.40;98.80;;;;;;5058488;28;20021;-74
2023/08/10 12:10:42;;;;;;;12.88;4.13;;;28.30;98.70;;;;;;5056655;28;20025;-76
2023/08/10 12:13:10;;;;;;;9.13;4.35;;;28.20;98.90;;;;;;5054126;28;20035;-74
2023/08/10 12:15:37;;;;;;;11.95;5.00;;;28.20;98.90;;;;;;5057069;28;20155;-72
2023/08/10 12:18:06;;;;;;;10.73;4.13;;;28.30;98.70;;;;;;5059454;28;20119;-74
2023/08/10 12:20:32;;;;;;;11.43;4.05;;;28.40;99.10;;;;;;5059014;28;20096;-74
2023/08/10 12:22:58;;;;;;;8.63;4.10;;;28.40;98.70;;;;;;5053157;28;20071;-73
2023/08/10 12:25:23;;;;;;;9.05;3.67;;;28.50;98.80;;;;;;5059994;28;20021;-76
2023/08/10 12:27:49;;;;;;;14.32;3.83;;;28.40;98.40;;;;;;5057222;28;20031;-74
2023/08/10 12:30:15;;;;;;;8.45;4.25;;;28.50;98.10;;;;;;5053691;28;20021;-74
2023/08/10 12:32:41;;;;;;;13.85;3.55;;;28.60;97.80;;;;;;5060645;28;20108;-72
2023/08/10 12:35:07;;;;;;;13.65;4.32;;;28.60;97.90;;;;;;5058492;28;20028;-74
2023/08/10 12:37:32;;;;;;;15.55;3.72;;;28.50;97.70;;;;;;5054662;28;20032;-76
2023/08/10 12:39:58;;;;;;;11.07;3.22;;;28.50;97.70;;;;;;5057905;28;20029;-75
2023/08/10 12:42:26;;;;;;;10.27;4.35;;;28.50;97.00;;;;;;5057014;28;20029;-75